sensor_id;sensor_type;location;lat;lon;timestamp;temperature;humidity
25616;DHT22;13482;48.234;13.006;2022-08-04T00:03:10;21.50;59.60
25616;DHT22;13482;48.234;13.006;2022-08-04T00:06:29;21.50;60.80
25616;DHT22;13482;48.234;13.006;2022-08-04T00:09:15;21.40;62.20
25616;DHT22;13482;48.234;13.006;2022-08-04T00:11:48;21.40;61.00
25616;DHT22;13482;48.234;13.006;2022-08-04T00:14:18;21.30;60.60
25616;DHT22;13482;48.234;13.006;2022-08-04T00:16:49;21.30;60.80
25616;DHT22;13482;48.234;13.006;2022-08-04T00:19:35;21.30;60.50
25616;DHT22;13482;48.234;13.006;2022-08-04T00:22:09;21.20;60.80
25616;DHT22;13482;48.234;13.006;2022-08-04T00:24:37;21.20;60.40
25616;DHT22;13482;48.234;13.006;2022-08-04T00:27:06;21.10;60.50
25616;DHT22;13482;48.234;13.006;2022-08-04T00:29:36;21.10;60.60
25616;DHT22;13482;48.234;13.006;2022-08-04T00:32:07;21.10;60.50
25616;DHT22;13482;48.234;13.006;2022-08-04T00:34:35;21.00;60.70
25616;DHT22;13482;48.234;13.006;2022-08-04T00:37:04;21.00;60.70
25616;DHT22;13482;48.234;13.006;2022-08-04T00:39:32;20.90;60.80
25616;DHT22;13482;48.234;13.006;2022-08-04T00:42:25;20.90;60.90
25616;DHT22;13482;48.234;13.006;2022-08-04T00:45:50;20.90;62.70
25616;DHT22;13482;48.234;13.006;2022-08-04T00:48:59;20.80;61.90
25616;DHT22;13482;48.234;13.006;2022-08-04T00:55:24;20.80;61.70
25616;DHT22;13482;48.234;13.006;2022-08-04T01:00:37;20.60;60.90
25616;DHT22;13482;48.234;13.006;2022-08-04T01:03:20;20.60;61.40
25616;DHT22;13482;48.234;13.006;2022-08-04T01:15:09;20.50;62.70
25616;DHT22;13482;48.234;13.006;2022-08-04T01:20:32;20.40;62.60
25616;DHT22;13482;48.234;13.006;2022-08-04T01:23:15;20.40;61.60
25616;DHT22;13482;48.234;13.006;2022-08-04T01:29:06;20.30;62.20
25616;DHT22;13482;48.234;13.006;2022-08-04T01:34:13;20.20;61.60
25616;DHT22;13482;48.234;13.006;2022-08-04T01:36:46;20.20;61.80
25616;DHT22;13482;48.234;13.006;2022-08-04T01:39:18;20.20;62.30
25616;DHT22;13482;48.234;13.006;2022-08-04T01:42:15;20.20;62.30
25616;DHT22;13482;48.234;13.006;2022-08-04T01:45:03;20.20;62.30
25616;DHT22;13482;48.234;13.006;2022-08-04T01:47:35;20.10;62.30
25616;DHT22;13482;48.234;13.006;2022-08-04T01:50:08;20.10;62.30
25616;DHT22;13482;48.234;13.006;2022-08-04T01:52:42;20.10;62.70
25616;DHT22;13482;48.234;13.006;2022-08-04T01:55:16;20.10;62.40
25616;DHT22;13482;48.234;13.006;2022-08-04T01:57:47;20.00;62.30
25616;DHT22;13482;48.234;13.006;2022-08-04T02:00:22;20.00;62.30
25616;DHT22;13482;48.234;13.006;2022-08-04T02:02:53;20.00;62.50
25616;DHT22;13482;48.234;13.006;2022-08-04T02:05:25;19.90;62.40
25616;DHT22;13482;48.234;13.006;2022-08-04T02:08:19;19.90;63.00
25616;DHT22;13482;48.234;13.006;2022-08-04T02:13:37;19.90;63.60
25616;DHT22;13482;48.234;13.006;2022-08-04T02:21:57;19.80;63.70
25616;DHT22;13482;48.234;13.006;2022-08-04T02:24:48;19.80;63.50
25616;DHT22;13482;48.234;13.006;2022-08-04T02:27:21;19.80;63.90
25616;DHT22;13482;48.234;13.006;2022-08-04T02:30:16;19.80;64.20
25616;DHT22;13482;48.234;13.006;2022-08-04T02:32:46;19.70;64.00
25616;DHT22;13482;48.234;13.006;2022-08-04T02:35:21;19.70;64.10
25616;DHT22;13482;48.234;13.006;2022-08-04T02:38:11;19.70;63.90
25616;DHT22;13482;48.234;13.006;2022-08-04T02:40:53;19.70;65.30
25616;DHT22;13482;48.234;13.006;2022-08-04T02:43:27;19.60;63.70
25616;DHT22;13482;48.234;13.006;2022-08-04T02:46:20;19.60;63.70
25616;DHT22;13482;48.234;13.006;2022-08-04T02:48:49;19.60;63.90
25616;DHT22;13482;48.234;13.006;2022-08-04T02:51:36;19.50;63.60
25616;DHT22;13482;48.234;13.006;2022-08-04T02:54:07;19.50;64.60
25616;DHT22;13482;48.234;13.006;2022-08-04T02:56:36;19.50;63.70
25616;DHT22;13482;48.234;13.006;2022-08-04T02:59:11;19.50;63.60
25616;DHT22;13482;48.234;13.006;2022-08-04T03:01:40;19.40;63.80
25616;DHT22;13482;48.234;13.006;2022-08-04T03:04:50;19.40;63.60
25616;DHT22;13482;48.234;13.006;2022-08-04T03:13:36;19.30;65.40
25616;DHT22;13482;48.234;13.006;2022-08-04T03:22:23;19.20;64.90
25616;DHT22;13482;48.234;13.006;2022-08-04T03:39:35;19.00;64.50
25616;DHT22;13482;48.234;13.006;2022-08-04T03:51:46;19.00;66.10
25616;DHT22;13482;48.234;13.006;2022-08-04T04:00:29;18.90;65.00
25616;DHT22;13482;48.234;13.006;2022-08-04T04:06:29;18.90;66.00
25616;DHT22;13482;48.234;13.006;2022-08-04T04:18:37;18.90;66.00
25616;DHT22;13482;48.234;13.006;2022-08-04T04:30:31;19.00;66.70
25616;DHT22;13482;48.234;13.006;2022-08-04T04:33:51;19.10;66.30
25616;DHT22;13482;48.234;13.006;2022-08-04T04:36:24;19.10;66.50
25616;DHT22;13482;48.234;13.006;2022-08-04T04:39:11;19.20;66.00
25616;DHT22;13482;48.234;13.006;2022-08-04T04:48:07;19.50;68.10
25616;DHT22;13482;48.234;13.006;2022-08-04T04:54:04;19.70;66.50
25616;DHT22;13482;48.234;13.006;2022-08-04T04:56:42;19.80;66.90
25616;DHT22;13482;48.234;13.006;2022-08-04T04:59:15;20.00;67.50
25616;DHT22;13482;48.234;13.006;2022-08-04T05:15:19;20.70;67.00
25616;DHT22;13482;48.234;13.006;2022-08-04T05:17:52;20.90;67.10
25616;DHT22;13482;48.234;13.006;2022-08-04T05:23:28;21.20;67.50
25616;DHT22;13482;48.234;13.006;2022-08-04T05:26:01;21.30;67.20
25616;DHT22;13482;48.234;13.006;2022-08-04T05:28:44;21.50;67.20
25616;DHT22;13482;48.234;13.006;2022-08-04T05:31:26;21.70;67.20
25616;DHT22;13482;48.234;13.006;2022-08-04T05:34:23;21.80;66.80
25616;DHT22;13482;48.234;13.006;2022-08-04T05:37:08;22.00;66.90
25616;DHT22;13482;48.234;13.006;2022-08-04T05:39:51;22.10;67.10
25616;DHT22;13482;48.234;13.006;2022-08-04T05:42:20;22.30;67.20
25616;DHT22;13482;48.234;13.006;2022-08-04T05:44:49;22.50;66.70
25616;DHT22;13482;48.234;13.006;2022-08-04T05:47:17;22.60;66.70
25616;DHT22;13482;48.234;13.006;2022-08-04T05:49:47;22.80;66.60
25616;DHT22;13482;48.234;13.006;2022-08-04T05:52:29;23.00;66.50
25616;DHT22;13482;48.234;13.006;2022-08-04T05:54:58;23.10;66.30
25616;DHT22;13482;48.234;13.006;2022-08-04T05:57:27;23.30;66.40
25616;DHT22;13482;48.234;13.006;2022-08-04T05:59:57;23.50;66.40
25616;DHT22;13482;48.234;13.006;2022-08-04T06:02:27;23.70;66.50
25616;DHT22;13482;48.234;13.006;2022-08-04T06:04:55;23.90;66.30
25616;DHT22;13482;48.234;13.006;2022-08-04T06:07:23;24.10;66.20
25616;DHT22;13482;48.234;13.006;2022-08-04T06:09:52;24.20;66.20
25616;DHT22;13482;48.234;13.006;2022-08-04T06:12:24;24.40;66.00
25616;DHT22;13482;48.234;13.006;2022-08-04T06:14:54;24.60;65.70
25616;DHT22;13482;48.234;13.006;2022-08-04T06:17:35;24.80;65.40
25616;DHT22;13482;48.234;13.006;2022-08-04T06:20:29;25.00;65.30
25616;DHT22;13482;48.234;13.006;2022-08-04T06:23:03;25.30;65.00
25616;DHT22;13482;48.234;13.006;2022-08-04T06:25:40;25.50;64.70
25616;DHT22;13482;48.234;13.006;2022-08-04T06:28:12;25.60;64.10
25616;DHT22;13482;48.234;13.006;2022-08-04T06:30:40;25.80;63.90
25616;DHT22;13482;48.234;13.006;2022-08-04T06:33:08;26.00;63.60
25616;DHT22;13482;48.234;13.006;2022-08-04T06:35:51;26.20;63.40
25616;DHT22;13482;48.234;13.006;2022-08-04T06:38:22;26.40;63.10
25616;DHT22;13482;48.234;13.006;2022-08-04T06:40:52;26.60;62.70
25616;DHT22;13482;48.234;13.006;2022-08-04T06:43:21;26.80;63.10
25616;DHT22;13482;48.234;13.006;2022-08-04T06:45:53;26.90;62.80
25616;DHT22;13482;48.234;13.006;2022-08-04T06:48:23;27.10;62.50
25616;DHT22;13482;48.234;13.006;2022-08-04T06:50:59;27.30;62.30
25616;DHT22;13482;48.234;13.006;2022-08-04T06:53:48;27.50;62.00
25616;DHT22;13482;48.234;13.006;2022-08-04T06:56:16;27.70;61.80
25616;DHT22;13482;48.234;13.006;2022-08-04T06:58:46;27.90;61.30
25616;DHT22;13482;48.234;13.006;2022-08-04T07:01:20;28.10;61.20
25616;DHT22;13482;48.234;13.006;2022-08-04T07:03:48;28.20;61.00
25616;DHT22;13482;48.234;13.006;2022-08-04T07:06:16;28.40;60.50
25616;DHT22;13482;48.234;13.006;2022-08-04T07:08:44;28.50;60.60
25616;DHT22;13482;48.234;13.006;2022-08-04T07:11:12;28.70;60.40
25616;DHT22;13482;48.234;13.006;2022-08-04T07:13:40;28.80;60.20
25616;DHT22;13482;48.234;13.006;2022-08-04T07:16:14;29.00;60.00
25616;DHT22;13482;48.234;13.006;2022-08-04T07:18:43;29.20;59.60
25616;DHT22;13482;48.234;13.006;2022-08-04T07:21:15;29.30;59.50
25616;DHT22;13482;48.234;13.006;2022-08-04T07:23:45;29.50;59.20
25616;DHT22;13482;48.234;13.006;2022-08-04T07:26:12;29.60;58.90
25616;DHT22;13482;48.234;13.006;2022-08-04T07:28:42;29.80;58.80
25616;DHT22;13482;48.234;13.006;2022-08-04T07:31:12;29.90;58.60
25616;DHT22;13482;48.234;13.006;2022-08-04T07:34:01;30.00;58.50
25616;DHT22;13482;48.234;13.006;2022-08-04T07:36:48;30.20;58.40
25616;DHT22;13482;48.234;13.006;2022-08-04T07:39:25;30.40;58.30
25616;DHT22;13482;48.234;13.006;2022-08-04T07:41:57;30.50;58.20
25616;DHT22;13482;48.234;13.006;2022-08-04T07:44:31;30.70;57.90
25616;DHT22;13482;48.234;13.006;2022-08-04T07:47:00;30.80;57.60
25616;DHT22;13482;48.234;13.006;2022-08-04T07:49:30;31.00;57.30
25616;DHT22;13482;48.234;13.006;2022-08-04T07:52:17;31.10;57.00
25616;DHT22;13482;48.234;13.006;2022-08-04T07:54:44;31.20;56.80
25616;DHT22;13482;48.234;13.006;2022-08-04T07:57:12;31.30;56.50
25616;DHT22;13482;48.234;13.006;2022-08-04T07:59:59;31.40;56.40
25616;DHT22;13482;48.234;13.006;2022-08-04T08:02:27;31.50;56.20
25616;DHT22;13482;48.234;13.006;2022-08-04T08:04:55;31.60;56.10
25616;DHT22;13482;48.234;13.006;2022-08-04T08:07:22;31.70;56.00
25616;DHT22;13482;48.234;13.006;2022-08-04T08:09:50;31.80;55.80
25616;DHT22;13482;48.234;13.006;2022-08-04T08:12:17;31.80;55.70
25616;DHT22;13482;48.234;13.006;2022-08-04T08:15:09;31.90;55.70
25616;DHT22;13482;48.234;13.006;2022-08-04T08:17:41;32.00;55.40
25616;DHT22;13482;48.234;13.006;2022-08-04T08:20:24;32.10;55.70
25616;DHT22;13482;48.234;13.006;2022-08-04T08:22:56;32.30;55.50
25616;DHT22;13482;48.234;13.006;2022-08-04T08:25:23;32.40;55.30
25616;DHT22;13482;48.234;13.006;2022-08-04T08:27:51;32.50;55.10
25616;DHT22;13482;48.234;13.006;2022-08-04T08:30:23;32.60;54.60
25616;DHT22;13482;48.234;13.006;2022-08-04T08:32:59;32.70;54.50
25616;DHT22;13482;48.234;13.006;2022-08-04T08:36:00;32.70;54.30
25616;DHT22;13482;48.234;13.006;2022-08-04T08:53:58;33.30;53.30
25616;DHT22;13482;48.234;13.006;2022-08-04T08:56:48;33.40;53.30
25616;DHT22;13482;48.234;13.006;2022-08-04T08:59:38;33.50;53.60
25616;DHT22;13482;48.234;13.006;2022-08-04T09:05:28;33.80;52.80
25616;DHT22;13482;48.234;13.006;2022-08-04T09:08:30;33.90;52.90
25616;DHT22;13482;48.234;13.006;2022-08-04T09:11:26;34.10;53.40
25616;DHT22;13482;48.234;13.006;2022-08-04T09:14:07;34.20;53.70
25616;DHT22;13482;48.234;13.006;2022-08-04T09:16:51;34.30;53.30
25616;DHT22;13482;48.234;13.006;2022-08-04T09:19:35;34.50;53.00
25616;DHT22;13482;48.234;13.006;2022-08-04T09:22:15;34.60;53.10
25616;DHT22;13482;48.234;13.006;2022-08-04T09:24:57;34.80;52.80
25616;DHT22;13482;48.234;13.006;2022-08-04T09:30:13;35.00;52.30
25616;DHT22;13482;48.234;13.006;2022-08-04T09:36:12;35.20;51.70
25616;DHT22;13482;48.234;13.006;2022-08-04T09:39:03;35.30;51.80
25616;DHT22;13482;48.234;13.006;2022-08-04T09:50:33;35.60;51.90
25616;DHT22;13482;48.234;13.006;2022-08-04T09:53:49;35.60;51.60
25616;DHT22;13482;48.234;13.006;2022-08-04T09:56:27;35.70;51.60
25616;DHT22;13482;48.234;13.006;2022-08-04T09:59:27;35.90;51.50
25616;DHT22;13482;48.234;13.006;2022-08-04T10:02:18;36.00;50.90
25616;DHT22;13482;48.234;13.006;2022-08-04T10:04:50;36.20;51.30
25616;DHT22;13482;48.234;13.006;2022-08-04T10:07:42;36.30;51.00
25616;DHT22;13482;48.234;13.006;2022-08-04T10:13:41;36.50;50.00
25616;DHT22;13482;48.234;13.006;2022-08-04T10:19:19;36.70;49.80
25616;DHT22;13482;48.234;13.006;2022-08-04T10:28:17;36.90;49.60
25616;DHT22;13482;48.234;13.006;2022-08-04T10:30:54;37.00;49.80
25616;DHT22;13482;48.234;13.006;2022-08-04T10:33:30;37.10;49.50
25616;DHT22;13482;48.234;13.006;2022-08-04T10:36:03;37.10;49.40
25616;DHT22;13482;48.234;13.006;2022-08-04T10:39:00;37.20;49.40
25616;DHT22;13482;48.234;13.006;2022-08-04T10:41:49;37.20;48.60
25616;DHT22;13482;48.234;13.006;2022-08-04T10:45:04;37.30;49.10
25616;DHT22;13482;48.234;13.006;2022-08-04T10:47:43;37.40;48.70
25616;DHT22;13482;48.234;13.006;2022-08-04T10:50:20;37.40;48.80
25616;DHT22;13482;48.234;13.006;2022-08-04T10:53:16;37.50;48.90
25616;DHT22;13482;48.234;13.006;2022-08-04T10:55:49;37.60;48.40
25616;DHT22;13482;48.234;13.006;2022-08-04T10:58:52;37.60;48.40
25616;DHT22;13482;48.234;13.006;2022-08-04T11:01:41;37.70;48.10
25616;DHT22;13482;48.234;13.006;2022-08-04T11:04:45;37.80;48.80
25616;DHT22;13482;48.234;13.006;2022-08-04T11:07:15;37.90;48.70
25616;DHT22;13482;48.234;13.006;2022-08-04T11:09:44;38.00;48.60
25616;DHT22;13482;48.234;13.006;2022-08-04T11:12:24;38.10;48.30
25616;DHT22;13482;48.234;13.006;2022-08-04T11:14:57;38.20;47.80
25616;DHT22;13482;48.234;13.006;2022-08-04T11:17:39;38.30;47.80
25616;DHT22;13482;48.234;13.006;2022-08-04T11:23:13;38.60;47.70
25616;DHT22;13482;48.234;13.006;2022-08-04T11:26:15;38.70;46.60
25616;DHT22;13482;48.234;13.006;2022-08-04T11:31:38;38.80;47.00
25616;DHT22;13482;48.234;13.006;2022-08-04T11:34:21;38.90;46.70
25616;DHT22;13482;48.234;13.006;2022-08-04T11:37:02;38.90;46.30
25616;DHT22;13482;48.234;13.006;2022-08-04T11:39:50;38.90;46.50
25616;DHT22;13482;48.234;13.006;2022-08-04T11:42:27;39.00;46.80
25616;DHT22;13482;48.234;13.006;2022-08-04T11:45:06;39.10;46.10
25616;DHT22;13482;48.234;13.006;2022-08-04T11:53:05;39.30;45.30
25616;DHT22;13482;48.234;13.006;2022-08-04T11:55:34;39.30;45.70
25616;DHT22;13482;48.234;13.006;2022-08-04T11:58:24;39.30;45.60
25616;DHT22;13482;48.234;13.006;2022-08-04T12:01:17;39.30;45.50
25616;DHT22;13482;48.234;13.006;2022-08-04T12:04:07;39.40;45.00
25616;DHT22;13482;48.234;13.006;2022-08-04T12:07:50;39.40;45.40
25616;DHT22;13482;48.234;13.006;2022-08-04T12:13:35;39.50;45.50
25616;DHT22;13482;48.234;13.006;2022-08-04T12:16:37;39.60;44.50
25616;DHT22;13482;48.234;13.006;2022-08-04T12:19:44;39.70;44.30
25616;DHT22;13482;48.234;13.006;2022-08-04T12:22:56;39.70;43.80
25616;DHT22;13482;48.234;13.006;2022-08-04T12:25:33;39.80;44.80
25616;DHT22;13482;48.234;13.006;2022-08-04T12:28:38;39.80;43.80
25616;DHT22;13482;48.234;13.006;2022-08-04T12:31:40;39.80;44.10
25616;DHT22;13482;48.234;13.006;2022-08-04T12:34:34;39.80;44.00
25616;DHT22;13482;48.234;13.006;2022-08-04T12:39:53;39.90;44.40
25616;DHT22;13482;48.234;13.006;2022-08-04T12:45:48;40.00;43.40
25616;DHT22;13482;48.234;13.006;2022-08-04T12:48:17;40.00;43.80
25616;DHT22;13482;48.234;13.006;2022-08-04T12:50:58;40.00;44.00
25616;DHT22;13482;48.234;13.006;2022-08-04T12:53:54;40.00;43.60
25616;DHT22;13482;48.234;13.006;2022-08-04T12:56:26;40.10;43.90
25616;DHT22;13482;48.234;13.006;2022-08-04T12:59:02;40.10;43.80
25616;DHT22;13482;48.234;13.006;2022-08-04T13:01:32;40.20;43.00
25616;DHT22;13482;48.234;13.006;2022-08-04T13:04:25;40.20;43.50
25616;DHT22;13482;48.234;13.006;2022-08-04T13:07:09;40.40;43.30
25616;DHT22;13482;48.234;13.006;2022-08-04T13:09:39;40.40;43.10
25616;DHT22;13482;48.234;13.006;2022-08-04T13:12:15;40.50;43.90
25616;DHT22;13482;48.234;13.006;2022-08-04T13:14:48;40.60;42.90
25616;DHT22;13482;48.234;13.006;2022-08-04T13:17:17;40.70;43.30
25616;DHT22;13482;48.234;13.006;2022-08-04T13:19:48;40.70;43.10
25616;DHT22;13482;48.234;13.006;2022-08-04T13:22:26;40.80;42.30
25616;DHT22;13482;48.234;13.006;2022-08-04T13:24:57;40.80;41.80
25616;DHT22;13482;48.234;13.006;2022-08-04T13:27:46;40.70;41.70
25616;DHT22;13482;48.234;13.006;2022-08-04T13:30:21;40.60;42.10
25616;DHT22;13482;48.234;13.006;2022-08-04T13:32:54;40.50;42.30
25616;DHT22;13482;48.234;13.006;2022-08-04T13:35:27;40.60;42.20
25616;DHT22;13482;48.234;13.006;2022-08-04T13:38:16;40.60;42.50
25616;DHT22;13482;48.234;13.006;2022-08-04T13:40:45;40.60;42.20
25616;DHT22;13482;48.234;13.006;2022-08-04T13:43:30;40.70;42.20
25616;DHT22;13482;48.234;13.006;2022-08-04T13:46:28;40.80;40.30
25616;DHT22;13482;48.234;13.006;2022-08-04T13:49:00;40.80;40.70
25616;DHT22;13482;48.234;13.006;2022-08-04T13:51:53;40.70;41.40
25616;DHT22;13482;48.234;13.006;2022-08-04T13:54:34;40.70;42.00
25616;DHT22;13482;48.234;13.006;2022-08-04T13:57:16;40.70;41.90
25616;DHT22;13482;48.234;13.006;2022-08-04T13:59:51;40.70;41.80
25616;DHT22;13482;48.234;13.006;2022-08-04T14:06:19;40.80;41.60
25616;DHT22;13482;48.234;13.006;2022-08-04T14:08:55;40.80;41.00
25616;DHT22;13482;48.234;13.006;2022-08-04T14:11:37;40.80;41.70
25616;DHT22;13482;48.234;13.006;2022-08-04T14:14:28;40.70;41.40
25616;DHT22;13482;48.234;13.006;2022-08-04T14:19:48;40.80;41.40
25616;DHT22;13482;48.234;13.006;2022-08-04T14:25:02;40.90;41.90
25616;DHT22;13482;48.234;13.006;2022-08-04T14:27:52;41.00;41.80
25616;DHT22;13482;48.234;13.006;2022-08-04T14:30:27;41.10;41.80
25616;DHT22;13482;48.234;13.006;2022-08-04T14:33:10;41.20;41.70
25616;DHT22;13482;48.234;13.006;2022-08-04T14:35:58;41.30;41.50
25616;DHT22;13482;48.234;13.006;2022-08-04T14:41:26;41.50;41.90
25616;DHT22;13482;48.234;13.006;2022-08-04T14:43:59;41.60;41.70
25616;DHT22;13482;48.234;13.006;2022-08-04T14:46:30;41.70;41.40
25616;DHT22;13482;48.234;13.006;2022-08-04T14:49:10;41.80;41.40
25616;DHT22;13482;48.234;13.006;2022-08-04T14:54:32;41.90;41.40
25616;DHT22;13482;48.234;13.006;2022-08-04T14:57:05;41.90;40.90
25616;DHT22;13482;48.234;13.006;2022-08-04T15:02:27;42.10;41.20
25616;DHT22;13482;48.234;13.006;2022-08-04T15:04:56;42.20;41.20
25616;DHT22;13482;48.234;13.006;2022-08-04T15:07:45;42.20;40.90
25616;DHT22;13482;48.234;13.006;2022-08-04T15:10:12;42.30;41.00
25616;DHT22;13482;48.234;13.006;2022-08-04T15:12:39;42.40;40.60
25616;DHT22;13482;48.234;13.006;2022-08-04T15:15:07;42.50;40.40
25616;DHT22;13482;48.234;13.006;2022-08-04T15:17:55;42.60;40.20
25616;DHT22;13482;48.234;13.006;2022-08-04T15:20:22;42.70;39.90
25616;DHT22;13482;48.234;13.006;2022-08-04T15:22:51;42.80;40.00
25616;DHT22;13482;48.234;13.006;2022-08-04T15:25:19;42.80;40.00
25616;DHT22;13482;48.234;13.006;2022-08-04T15:27:48;42.90;39.80
25616;DHT22;13482;48.234;13.006;2022-08-04T15:30:17;42.90;39.60
25616;DHT22;13482;48.234;13.006;2022-08-04T15:32:53;43.00;39.60
25616;DHT22;13482;48.234;13.006;2022-08-04T15:35:27;43.00;39.30
25616;DHT22;13482;48.234;13.006;2022-08-04T15:38:07;43.10;39.50
25616;DHT22;13482;48.234;13.006;2022-08-04T15:40:51;43.20;39.60
25616;DHT22;13482;48.234;13.006;2022-08-04T15:49:30;43.70;39.60
25616;DHT22;13482;48.234;13.006;2022-08-04T15:52:07;43.90;39.50
25616;DHT22;13482;48.234;13.006;2022-08-04T15:54:48;44.10;39.50
25616;DHT22;13482;48.234;13.006;2022-08-04T15:57:59;44.30;39.60
25616;DHT22;13482;48.234;13.006;2022-08-04T16:00:27;44.60;39.80
25616;DHT22;13482;48.234;13.006;2022-08-04T16:03:00;44.90;39.50
25616;DHT22;13482;48.234;13.006;2022-08-04T16:05:28;45.10;39.10
25616;DHT22;13482;48.234;13.006;2022-08-04T16:08:00;45.30;38.90
25616;DHT22;13482;48.234;13.006;2022-08-04T16:10:42;45.60;38.70
25616;DHT22;13482;48.234;13.006;2022-08-04T16:13:17;45.80;38.50
25616;DHT22;13482;48.234;13.006;2022-08-04T16:15:54;46.00;38.50
25616;DHT22;13482;48.234;13.006;2022-08-04T16:20:58;46.50;38.20
25616;DHT22;13482;48.234;13.006;2022-08-04T16:29:28;47.10;37.00
25616;DHT22;13482;48.234;13.006;2022-08-04T16:32:22;47.40;36.90
25616;DHT22;13482;48.234;13.006;2022-08-04T16:35:01;47.50;36.80
25616;DHT22;13482;48.234;13.006;2022-08-04T16:37:36;47.60;36.70
25616;DHT22;13482;48.234;13.006;2022-08-04T16:40:35;47.70;36.80
25616;DHT22;13482;48.234;13.006;2022-08-04T16:43:15;47.80;36.40
25616;DHT22;13482;48.234;13.006;2022-08-04T16:45:47;47.90;36.40
25616;DHT22;13482;48.234;13.006;2022-08-04T16:48:20;48.10;36.70
25616;DHT22;13482;48.234;13.006;2022-08-04T16:50:58;48.20;36.80
25616;DHT22;13482;48.234;13.006;2022-08-04T16:56:32;48.50;36.50
25616;DHT22;13482;48.234;13.006;2022-08-04T16:59:08;48.70;36.50
25616;DHT22;13482;48.234;13.006;2022-08-04T17:01:37;48.90;35.90
25616;DHT22;13482;48.234;13.006;2022-08-04T17:04:13;49.00;36.10
25616;DHT22;13482;48.234;13.006;2022-08-04T17:06:43;49.20;35.90
25616;DHT22;13482;48.234;13.006;2022-08-04T17:09:16;49.30;35.60
25616;DHT22;13482;48.234;13.006;2022-08-04T17:11:45;49.40;35.40
25616;DHT22;13482;48.234;13.006;2022-08-04T17:14:23;49.40;35.30
25616;DHT22;13482;48.234;13.006;2022-08-04T17:17:00;49.50;34.90
25616;DHT22;13482;48.234;13.006;2022-08-04T17:19:27;49.50;34.90
25616;DHT22;13482;48.234;13.006;2022-08-04T17:21:59;49.40;35.00
25616;DHT22;13482;48.234;13.006;2022-08-04T17:24:34;49.40;34.80
25616;DHT22;13482;48.234;13.006;2022-08-04T17:27:04;49.30;34.70
25616;DHT22;13482;48.234;13.006;2022-08-04T17:29:51;49.20;34.70
25616;DHT22;13482;48.234;13.006;2022-08-04T17:32:20;49.10;34.70
25616;DHT22;13482;48.234;13.006;2022-08-04T17:34:53;48.90;34.60
25616;DHT22;13482;48.234;13.006;2022-08-04T17:37:23;48.70;34.60
25616;DHT22;13482;48.234;13.006;2022-08-04T17:40:13;48.60;34.60
25616;DHT22;13482;48.234;13.006;2022-08-04T17:43:04;48.40;34.70
25616;DHT22;13482;48.234;13.006;2022-08-04T17:46:14;48.20;34.50
25616;DHT22;13482;48.234;13.006;2022-08-04T17:51:44;47.70;34.70
25616;DHT22;13482;48.234;13.006;2022-08-04T17:54:34;47.50;34.90
25616;DHT22;13482;48.234;13.006;2022-08-04T17:57:16;47.30;35.10
25616;DHT22;13482;48.234;13.006;2022-08-04T18:00:07;47.00;34.90
25616;DHT22;13482;48.234;13.006;2022-08-04T18:02:51;46.70;35.20
25616;DHT22;13482;48.234;13.006;2022-08-04T18:05:27;46.50;35.10
25616;DHT22;13482;48.234;13.006;2022-08-04T18:08:16;46.10;35.20
25616;DHT22;13482;48.234;13.006;2022-08-04T18:11:03;45.50;35.30
25616;DHT22;13482;48.234;13.006;2022-08-04T18:13:30;45.00;35.40
25616;DHT22;13482;48.234;13.006;2022-08-04T18:16:09;44.40;35.60
25616;DHT22;13482;48.234;13.006;2022-08-04T18:19:16;43.70;35.80
25616;DHT22;13482;48.234;13.006;2022-08-04T18:22:04;43.00;36.40
25616;DHT22;13482;48.234;13.006;2022-08-04T18:24:42;42.30;36.40
25616;DHT22;13482;48.234;13.006;2022-08-04T18:27:25;41.70;36.90
25616;DHT22;13482;48.234;13.006;2022-08-04T18:29:57;41.10;37.20
25616;DHT22;13482;48.234;13.006;2022-08-04T18:32:44;40.50;37.70
25616;DHT22;13482;48.234;13.006;2022-08-04T18:35:35;39.90;38.10
25616;DHT22;13482;48.234;13.006;2022-08-04T18:38:22;39.40;38.60
25616;DHT22;13482;48.234;13.006;2022-08-04T18:40:50;38.80;38.80
25616;DHT22;13482;48.234;13.006;2022-08-04T18:43:20;38.40;39.30
25616;DHT22;13482;48.234;13.006;2022-08-04T18:45:54;38.00;39.80
25616;DHT22;13482;48.234;13.006;2022-08-04T18:48:22;37.60;40.10
25616;DHT22;13482;48.234;13.006;2022-08-04T18:51:03;37.20;40.30
25616;DHT22;13482;48.234;13.006;2022-08-04T18:53:49;36.80;40.60
25616;DHT22;13482;48.234;13.006;2022-08-04T18:56:29;36.50;40.80
25616;DHT22;13482;48.234;13.006;2022-08-04T18:59:03;36.10;41.50
25616;DHT22;13482;48.234;13.006;2022-08-04T19:01:36;35.80;41.70
25616;DHT22;13482;48.234;13.006;2022-08-04T19:04:24;35.50;41.80
25616;DHT22;13482;48.234;13.006;2022-08-04T19:07:03;35.20;41.90
25616;DHT22;13482;48.234;13.006;2022-08-04T19:09:51;34.90;42.40
25616;DHT22;13482;48.234;13.006;2022-08-04T19:12:23;34.60;42.50
25616;DHT22;13482;48.234;13.006;2022-08-04T19:14:55;34.40;42.60
25616;DHT22;13482;48.234;13.006;2022-08-04T19:17:33;34.20;42.90
25616;DHT22;13482;48.234;13.006;2022-08-04T19:20:21;33.90;43.30
25616;DHT22;13482;48.234;13.006;2022-08-04T19:22:51;33.70;43.60
25616;DHT22;13482;48.234;13.006;2022-08-04T19:25:39;33.50;43.90
25616;DHT22;13482;48.234;13.006;2022-08-04T19:28:28;33.20;44.10
25616;DHT22;13482;48.234;13.006;2022-08-04T19:31:00;33.00;44.30
25616;DHT22;13482;48.234;13.006;2022-08-04T19:33:30;32.80;44.80
25616;DHT22;13482;48.234;13.006;2022-08-04T19:36:18;32.70;45.10
25616;DHT22;13482;48.234;13.006;2022-08-04T19:38:45;32.50;45.30
25616;DHT22;13482;48.234;13.006;2022-08-04T19:41:15;32.30;45.70
25616;DHT22;13482;48.234;13.006;2022-08-04T19:43:43;32.10;45.80
25616;DHT22;13482;48.234;13.006;2022-08-04T19:46:13;31.90;46.10
25616;DHT22;13482;48.234;13.006;2022-08-04T19:48:43;31.80;46.40
25616;DHT22;13482;48.234;13.006;2022-08-04T19:51:27;31.60;46.50
25616;DHT22;13482;48.234;13.006;2022-08-04T19:54:06;31.40;46.50
25616;DHT22;13482;48.234;13.006;2022-08-04T19:56:49;31.30;46.70
25616;DHT22;13482;48.234;13.006;2022-08-04T19:59:16;31.10;47.00
25616;DHT22;13482;48.234;13.006;2022-08-04T20:01:43;31.00;47.30
25616;DHT22;13482;48.234;13.006;2022-08-04T20:04:13;30.80;47.60
25616;DHT22;13482;48.234;13.006;2022-08-04T20:06:41;30.70;47.90
25616;DHT22;13482;48.234;13.006;2022-08-04T20:09:09;30.60;47.90
25616;DHT22;13482;48.234;13.006;2022-08-04T20:11:50;30.40;48.10
25616;DHT22;13482;48.234;13.006;2022-08-04T20:14:18;30.30;48.30
25616;DHT22;13482;48.234;13.006;2022-08-04T20:16:57;30.20;48.50